Time;durP1;ratioP1;P1;durP2;ratioP2;P2;SDS_P1;SDS_P2;PMS_P1;PMS_P2;Temp;Humidity;BMP_temperature;BMP_pressure;BME280_temperature;BME280_humidity;BME280_pressure;Samples;Min_cycle;Max_cycle;Signal;HPM_P1;HPM_P2
2020/12/09 00:01:55;;;;;;;16.65;10.88;;;-6.10;73.30;;;;;;5057022;28;20025;-85
2020/12/09 00:04:22;;;;;;;18.90;11.15;;;-6.20;73.30;;;;;;5058180;28;20013;-83
2020/12/09 00:06:49;;;;;;;13.77;9.20;;;-6.20;73.30;;;;;;5051161;28;20041;-84
2020/12/09 00:09:19;;;;;;;31.50;13.63;;;-6.20;73.30;;;;;;5057027;28;20388;-85
2020/12/09 00:11:46;;;;;;;19.67;11.52;;;-6.20;73.30;;;;;;5062407;28;20025;-84
2020/12/09 00:14:12;;;;;;;19.83;11.48;;;-6.20;73.30;;;;;;5074014;28;20017;-84
2020/12/09 00:16:39;;;;;;;23.83;12.88;;;-6.20;73.30;;;;;;5057615;28;20096;-85
2020/12/09 00:19:06;;;;;;;21.58;11.43;;;-6.20;73.30;;;;;;5054272;28;20021;-85
2020/12/09 00:21:33;;;;;;;21.52;13.85;;;-6.20;73.30;;;;;;5056234;28;20017;-86
2020/12/09 00:23:59;;;;;;;20.45;11.60;;;-6.20;73.30;;;;;;5054651;28;20111;-84
2020/12/09 00:26:26;;;;;;;17.25;10.50;;;-6.20;73.40;;;;;;5054565;28;20486;-84
2020/12/09 00:28:54;;;;;;;17.92;10.48;;;-6.20;73.50;;;;;;5056393;28;20028;-84
2020/12/09 00:31:23;;;;;;;22.35;13.02;;;-6.20;73.50;;;;;;5056264;28;20033;-87
2020/12/09 00:33:50;;;;;;;25.33;12.27;;;-6.20;73.40;;;;;;5054562;28;20033;-84
2020/12/09 00:36:17;;;;;;;29.92;11.77;;;-6.20;73.40;;;;;;5054797;28;20028;-85
2020/12/09 00:38:44;;;;;;;;;;;-6.20;73.30;;;;;;5055360;28;20028;-84
2020/12/09 00:41:28;;;;;;;18.92;10.02;;;-6.20;73.30;;;;;;5056785;28;19905;-86
2020/12/09 00:43:56;;;;;;;17.30;11.20;;;-6.20;73.30;;;;;;5055661;28;20025;-86
2020/12/09 00:46:24;;;;;;;18.42;10.43;;;-6.20;73.30;;;;;;5055869;28;20118;-85
2020/12/09 00:48:51;;;;;;;17.92;10.27;;;-6.30;73.30;;;;;;5056065;28;20470;-85
2020/12/09 00:51:19;;;;;;;16.50;10.20;;;-6.20;73.20;;;;;;5063026;28;20025;-84
2020/12/09 00:53:45;;;;;;;16.90;9.73;;;-6.20;73.10;;;;;;5061757;28;20028;-84
2020/12/09 00:56:11;;;;;;;18.27;11.10;;;-6.20;73.10;;;;;;5060925;28;20066;-84
2020/12/09 00:58:37;;;;;;;20.60;11.80;;;-6.20;73.00;;;;;;5059498;28;20032;-85
2020/12/09 01:01:08;;;;;;;18.87;10.43;;;-6.20;72.90;;;;;;5060349;28;20021;-84
2020/12/09 01:03:34;;;;;;;20.02;10.77;;;-6.20;73.00;;;;;;5064584;28;20039;-84
2020/12/09 01:06:01;;;;;;;17.45;11.05;;;-6.20;72.90;;;;;;5062809;28;20116;-84
2020/12/09 01:08:27;;;;;;;15.43;8.85;;;-6.20;72.80;;;;;;5058603;28;20025;-84
2020/12/09 01:10:54;;;;;;;19.00;11.55;;;-6.20;72.60;;;;;;5047415;28;20053;-84
2020/12/09 01:13:20;;;;;;;23.33;11.07;;;-6.20;72.60;;;;;;5057060;28;20021;-86
2020/12/09 01:15:46;;;;;;;14.63;10.02;;;-6.20;72.60;;;;;;5050319;28;20052;-85
2020/12/09 01:18:12;;;;;;;18.38;10.35;;;-6.20;72.60;;;;;;5049173;28;20036;-85
2020/12/09 01:20:38;;;;;;;18.95;11.98;;;-6.20;72.50;;;;;;5066786;28;20013;-87
2020/12/09 01:23:04;;;;;;;21.08;11.68;;;-6.20;72.50;;;;;;5074237;28;20073;-86
2020/12/09 01:25:30;;;;;;;15.98;10.38;;;-6.20;72.40;;;;;;5061358;28;20033;-86
2020/12/09 01:28:04;;;;;;;19.80;12.40;;;-6.20;72.30;;;;;;5061876;28;20025;-84
2020/12/09 01:30:32;;;;;;;24.20;11.98;;;-6.20;72.40;;;;;;5062291;28;20021;-86
2020/12/09 01:32:58;;;;;;;24.70;11.23;;;-6.20;72.40;;;;;;5070065;28;20021;-84
2020/12/09 01:35:25;;;;;;;44.05;10.00;;;-6.30;72.30;;;;;;5076470;28;20063;-85
2020/12/09 01:37:51;;;;;;;17.52;10.45;;;-6.20;72.30;;;;;;5063746;28;20016;-83
2020/12/09 01:40:17;;;;;;;19.75;10.43;;;-6.20;72.30;;;;;;5063314;28;20055;-84
2020/12/09 01:42:43;;;;;;;21.27;10.65;;;-6.20;72.30;;;;;;5042164;28;20020;-85
2020/12/09 01:45:09;;;;;;;21.23;11.40;;;-6.20;72.30;;;;;;5055355;28;20033;-85
2020/12/09 01:47:36;;;;;;;17.23;10.35;;;-6.20;72.30;;;;;;5065173;28;20021;-84
2020/12/09 01:50:03;;;;;;;17.83;10.65;;;-6.20;72.30;;;;;;5058377;28;20618;-86
2020/12/09 01:52:29;;;;;;;18.27;11.85;;;-6.20;72.30;;;;;;5054528;28;20025;-85
2020/12/09 01:54:55;;;;;;;18.50;10.75;;;-6.20;72.40;;;;;;5054761;28;20478;-84
2020/12/09 01:57:22;;;;;;;22.20;11.20;;;-6.20;72.30;;;;;;5054946;28;20472;-85
2020/12/09 01:59:48;;;;;;;22.63;10.73;;;-6.20;72.30;;;;;;5055193;28;20059;-84
2020/12/09 02:02:15;;;;;;;25.10;11.80;;;-6.20;72.30;;;;;;5063344;28;20032;-82
2020/12/09 02:04:42;;;;;;;21.13;11.60;;;-6.20;72.30;;;;;;5073021;28;20100;-83
2020/12/09 02:07:08;;;;;;;19.80;12.00;;;-6.20;72.30;;;;;;5056984;28;20049;-84
2020/12/09 02:09:34;;;;;;;21.15;11.15;;;-6.20;72.30;;;;;;5059987;28;20049;-83
2020/12/09 02:12:00;;;;;;;21.13;11.90;;;-6.20;72.30;;;;;;5058715;28;20179;-86
2020/12/09 02:14:27;;;;;;;17.98;11.40;;;-6.20;72.30;;;;;;5055543;28;20025;-86
2020/12/09 02:16:58;;;;;;;20.15;11.13;;;-6.20;72.30;;;;;;5054491;28;20047;-87
2020/12/09 02:19:24;;;;;;;17.40;11.20;;;-6.20;72.30;;;;;;5054533;28;20035;-86
2020/12/09 02:21:51;;;;;;;14.25;8.95;;;-6.20;72.30;;;;;;5054950;28;20454;-89
2020/12/09 02:24:17;;;;;;;17.83;10.85;;;-6.20;72.30;;;;;;5054371;28;20068;-86
2020/12/09 02:26:48;;;;;;;19.83;11.05;;;-6.20;72.40;;;;;;5056310;28;20063;-85
2020/12/09 02:29:14;;;;;;;17.83;11.10;;;-6.20;72.40;;;;;;5060104;28;20028;-85
2020/12/09 02:31:41;;;;;;;21.77;13.83;;;-6.30;72.40;;;;;;5052033;28;20398;-85
2020/12/09 02:34:08;;;;;;;17.38;12.07;;;-6.30;72.50;;;;;;5054252;28;20024;-86
2020/12/09 02:36:34;;;;;;;20.40;11.57;;;-6.30;72.50;;;;;;5048612;28;20029;-86
2020/12/09 02:39:01;;;;;;;19.85;12.18;;;-6.30;72.50;;;;;;5047079;28;20021;-86
2020/12/09 02:41:27;;;;;;;20.20;11.97;;;-6.30;72.50;;;;;;5050404;28;20029;-85
2020/12/09 02:43:52;;;;;;;20.00;11.77;;;-6.30;72.40;;;;;;5036106;28;20482;-87
2020/12/09 02:46:18;;;;;;;21.63;11.13;;;-6.30;72.40;;;;;;5054772;28;20029;-86
2020/12/09 02:48:44;;;;;;;20.13;11.52;;;-6.30;72.30;;;;;;5068798;28;20017;-86
2020/12/09 02:51:10;;;;;;;25.30;13.73;;;-6.30;72.30;;;;;;5063019;28;20585;-83
2020/12/09 02:53:36;;;;;;;20.73;11.77;;;-6.30;72.30;;;;;;5064052;28;20127;-84
2020/12/09 02:56:04;;;;;;;21.15;11.30;;;-6.30;72.30;;;;;;5057809;28;20028;-84
2020/12/09 02:58:30;;;;;;;18.98;11.10;;;-6.30;72.30;;;;;;5056559;28;20029;-86
2020/12/09 03:00:56;;;;;;;21.25;12.02;;;-6.30;72.30;;;;;;5054916;28;20067;-84
2020/12/09 03:03:22;;;;;;;16.83;11.25;;;-6.30;72.30;;;;;;5053120;28;20568;-86
2020/12/09 03:05:48;;;;;;;20.63;11.85;;;-6.30;72.40;;;;;;5054208;28;20040;-85
2020/12/09 03:08:16;;;;;;;16.10;10.10;;;-6.30;72.40;;;;;;5054315;28;20022;-85
2020/12/09 03:10:42;;;;;;;19.55;11.35;;;-6.40;72.40;;;;;;5054509;28;20113;-85
2020/12/09 03:13:08;;;;;;;18.75;11.88;;;-6.40;72.40;;;;;;5058846;28;20048;-85
2020/12/09 03:15:34;;;;;;;20.52;13.20;;;-6.40;72.40;;;;;;5055236;28;20021;-85
2020/12/09 03:17:59;;;;;;;22.08;12.18;;;-6.40;72.40;;;;;;5069841;28;20033;-84
2020/12/09 03:20:25;;;;;;;22.85;13.70;;;-6.40;72.40;;;;;;5071082;28;20029;-85
2020/12/09 03:22:51;;;;;;;16.42;11.25;;;-6.40;73.00;;;;;;5066625;28;20067;-84
2020/12/09 03:25:17;;;;;;;19.52;10.98;;;-6.40;72.40;;;;;;5064692;28;20037;-84
2020/12/09 03:27:43;;;;;;;21.85;11.90;;;-6.40;72.30;;;;;;5065247;28;20517;-85
2020/12/09 03:30:09;;;;;;;23.85;12.40;;;-6.40;72.20;;;;;;5059056;28;20032;-86
2020/12/09 03:32:34;;;;;;;19.85;13.60;;;-6.40;72.10;;;;;;5058095;28;20017;-87
2020/12/09 03:35:00;;;;;;;26.85;13.15;;;-6.40;72.20;;;;;;5055632;28;20017;-87
2020/12/09 03:37:26;;;;;;;20.02;13.25;;;-6.40;72.30;;;;;;5051968;28;20391;-86
2020/12/09 03:39:52;;;;;;;25.98;13.30;;;-6.40;72.30;;;;;;5044306;28;20488;-86
2020/12/09 03:42:17;;;;;;;22.45;12.20;;;-6.40;72.40;;;;;;5061197;28;20033;-85
2020/12/09 03:44:43;;;;;;;19.40;10.48;;;-6.40;72.40;;;;;;5063457;28;20060;-85
2020/12/09 03:47:09;;;;;;;22.52;12.48;;;-6.40;72.40;;;;;;5059865;28;20065;-85
2020/12/09 03:49:35;;;;;;;20.00;11.85;;;-6.40;72.50;;;;;;5060116;28;20048;-86
2020/12/09 03:52:00;;;;;;;23.48;15.05;;;-6.40;72.50;;;;;;5060021;28;20100;-85
2020/12/09 03:54:26;;;;;;;23.85;12.32;;;-6.40;72.60;;;;;;5058458;28;20025;-84
2020/12/09 03:56:52;;;;;;;22.48;12.88;;;-6.40;72.70;;;;;;5060350;28;20104;-85
2020/12/09 03:59:18;;;;;;;22.08;12.93;;;-6.40;72.70;;;;;;5060021;28;20381;-85
2020/12/09 04:01:44;;;;;;;22.77;12.02;;;-6.40;72.60;;;;;;5057509;28;20021;-85
2020/12/09 04:04:09;;;;;;;22.02;12.98;;;-6.40;72.70;;;;;;5056443;28;20021;-86
2020/12/09 04:06:36;;;;;;;21.55;11.43;;;-6.40;72.70;;;;;;5056392;28;20513;-85
2020/12/09 04:09:04;;;;;;;27.23;12.73;;;-6.50;72.60;;;;;;5062352;28;20045;-85
2020/12/09 04:11:30;;;;;;;20.27;11.63;;;-6.50;72.60;;;;;;5065140;28;20025;-84
2020/12/09 04:13:56;;;;;;;23.48;13.55;;;-6.50;72.60;;;;;;5061379;28;20013;-83
2020/12/09 04:16:22;;;;;;;23.33;14.02;;;-6.50;72.60;;;;;;5054756;28;20036;-85
2020/12/09 04:18:47;;;;;;;27.02;13.90;;;-6.50;72.60;;;;;;5056097;28;20025;-85
2020/12/09 04:21:13;;;;;;;21.13;11.88;;;-6.50;72.50;;;;;;5055959;28;20375;-84
2020/12/09 04:23:39;;;;;;;23.38;12.90;;;-6.50;72.60;;;;;;5055847;28;20371;-85
2020/12/09 04:26:05;;;;;;;21.23;12.75;;;-6.50;72.50;;;;;;5058674;28;20033;-86
2020/12/09 04:28:30;;;;;;;26.70;15.63;;;-6.50;72.50;;;;;;5058893;28;20048;-85
2020/12/09 04:30:56;;;;;;;25.80;14.15;;;-6.50;72.50;;;;;;5055823;28;20047;-85
2020/12/09 04:33:30;;;;;;;23.08;13.48;;;-6.50;72.30;;;;;;5054531;28;20100;-83
2020/12/09 04:35:56;;;;;;;26.35;15.27;;;-6.50;72.30;;;;;;5063080;28;20013;-83
2020/12/09 04:38:23;;;;;;;20.60;11.55;;;-6.50;72.30;;;;;;5055712;28;20032;-84
2020/12/09 04:40:49;;;;;;;26.55;12.63;;;-6.60;72.30;;;;;;5052231;28;20044;-85
2020/12/09 04:43:15;;;;;;;18.80;12.95;;;-6.50;72.30;;;;;;5056671;28;20390;-84
2020/12/09 04:45:41;;;;;;;24.63;13.32;;;-6.60;72.20;;;;;;5051821;28;20025;-85
2020/12/09 04:48:13;;;;;;;24.15;12.60;;;-6.60;72.30;;;;;;5056728;28;20089;-86
2020/12/09 04:50:51;;;;;;;25.42;14.13;;;-6.50;72.30;;;;;;5055470;28;20076;-86
2020/12/09 04:53:31;;;;;;;17.00;11.93;;;-6.50;72.20;;;;;;5049032;28;20128;-84
2020/12/09 04:55:58;;;;;;;19.98;12.60;;;-6.50;72.30;;;;;;5070583;28;20029;-84
2020/12/09 04:58:42;;;;;;;21.38;12.32;;;-6.50;72.30;;;;;;5077059;28;20041;-83
2020/12/09 05:01:15;;;;;;;20.75;13.82;;;-6.50;72.30;;;;;;5065227;28;20029;-84
2020/12/09 05:03:40;;;;;;;17.70;11.75;;;-6.50;72.20;;;;;;5053364;28;20020;-87
2020/12/09 05:06:07;;;;;;;21.58;11.80;;;-6.50;72.10;;;;;;5054273;28;20479;-84
2020/12/09 05:08:35;;;;;;;20.80;11.73;;;-6.50;72.10;;;;;;5056260;28;20129;-85
2020/12/09 05:11:06;;;;;;;19.63;11.80;;;-6.50;72.20;;;;;;5068692;28;20025;-83
2020/12/09 05:13:35;;;;;;;24.98;11.55;;;-6.50;72.10;;;;;;5077954;28;20038;-83
2020/12/09 05:16:02;;;;;;;24.95;12.45;;;-6.60;72.00;;;;;;5075796;28;20016;-84
2020/12/09 05:18:41;;;;;;;18.55;12.05;;;-6.50;72.00;;;;;;5061033;28;20027;-84
2020/12/09 05:21:11;;;;;;;14.95;10.52;;;-6.50;72.00;;;;;;5056362;28;20041;-85
2020/12/09 05:23:44;;;;;;;20.73;11.25;;;-6.60;71.90;;;;;;5046431;28;20028;-85
2020/12/09 05:26:38;;;;;;;21.70;11.25;;;-6.50;71.90;;;;;;5053921;28;20031;-85
2020/12/09 05:29:18;;;;;;;22.80;12.00;;;-6.60;71.80;;;;;;5049991;28;20029;-88
2020/12/09 05:31:46;;;;;;;21.85;11.48;;;-6.60;71.80;;;;;;5055712;28;20143;-89
2020/12/09 05:34:29;;;;;;;23.80;12.18;;;-6.60;71.70;;;;;;5055017;28;20132;-88
2020/12/09 05:37:06;;;;;;;22.63;12.32;;;-6.60;71.80;;;;;;5058026;28;20486;-86
2020/12/09 05:39:48;;;;;;;19.45;10.95;;;-6.60;71.70;;;;;;5058757;28;20032;-85
2020/12/09 05:42:15;;;;;;;22.50;12.57;;;-6.60;71.70;;;;;;5057629;28;20048;-85
2020/12/09 05:44:42;;;;;;;20.77;12.02;;;-6.60;71.50;;;;;;5044101;28;20108;-86
2020/12/09 05:47:09;;;;;;;24.75;13.32;;;-6.60;71.50;;;;;;5053684;28;20053;-85
2020/12/09 05:49:37;;;;;;;17.95;10.40;;;-6.60;71.60;;;;;;5060198;28;20478;-84
2020/12/09 05:52:04;;;;;;;22.98;12.23;;;-6.60;71.40;;;;;;5064878;28;20055;-85
2020/12/09 05:54:30;;;;;;;19.13;11.52;;;-6.60;71.40;;;;;;5066358;28;20017;-87
2020/12/09 05:56:57;;;;;;;22.95;11.45;;;-6.60;71.20;;;;;;5057409;28;20478;-85
2020/12/09 05:59:42;;;;;;;22.60;12.27;;;-6.60;71.10;;;;;;5057189;28;20039;-88
2020/12/09 06:02:22;;;;;;;27.13;13.40;;;-6.60;71.20;;;;;;5057399;28;20076;-86
2020/12/09 06:04:56;;;;;;;23.20;12.73;;;-6.60;71.30;;;;;;5047294;28;20029;-88
2020/12/09 06:07:26;;;;;;;16.35;10.23;;;-6.60;71.40;;;;;;5051752;28;20248;-87
2020/12/09 06:10:19;;;;;;;25.92;11.60;;;-6.60;71.30;;;;;;5053015;28;20080;-86
2020/12/09 06:13:03;;;;;;;22.38;12.27;;;-6.60;71.20;;;;;;5045547;28;20043;-87
2020/12/09 06:15:30;;;;;;;23.80;11.60;;;-6.50;71.40;;;;;;5045375;28;20009;-88
2020/12/09 06:18:06;;;;;;;23.48;12.70;;;-6.60;71.40;;;;;;5058397;28;20021;-88
2020/12/09 06:20:34;;;;;;;27.25;12.68;;;-6.60;71.30;;;;;;5068278;28;20092;-90
2020/12/09 06:23:02;;;;;;;21.77;12.90;;;-6.60;71.20;;;;;;5057758;28;20413;-88
2020/12/09 06:25:28;;;;;;;20.58;11.82;;;-6.50;71.40;;;;;;5054129;28;20107;-85
2020/12/09 06:27:55;;;;;;;24.98;12.98;;;-6.50;71.40;;;;;;5054123;28;20044;-85
2020/12/09 06:30:29;;;;;;;30.20;13.40;;;-6.50;71.40;;;;;;5054722;28;20074;-84
2020/12/09 06:32:55;;;;;;;21.73;12.82;;;-6.50;71.40;;;;;;5067143;28;20032;-85
2020/12/09 06:35:22;;;;;;;19.50;13.10;;;-6.50;71.30;;;;;;5061646;28;20143;-87
2020/12/09 06:38:10;;;;;;;18.63;11.20;;;-6.50;71.20;;;;;;5063720;28;20043;-88
2020/12/09 06:40:37;;;;;;;19.85;12.10;;;-6.40;70.90;;;;;;5057340;28;20099;-86
2020/12/09 06:43:09;;;;;;;23.05;12.68;;;-6.40;70.60;;;;;;5063584;28;20033;-86
2020/12/09 06:45:45;;;;;;;20.52;12.82;;;-6.40;70.50;;;;;;5061599;28;20462;-85
2020/12/09 06:48:13;;;;;;;25.65;13.07;;;-6.40;70.40;;;;;;5064072;28;20382;-84
2020/12/09 06:50:42;;;;;;;19.58;12.05;;;-6.40;70.50;;;;;;5056754;28;20029;-87
2020/12/09 06:53:17;;;;;;;27.45;13.52;;;-6.40;70.40;;;;;;5055286;28;20025;-84
2020/12/09 06:55:47;;;;;;;21.60;11.88;;;-6.40;70.20;;;;;;5043056;28;20034;-88
2020/12/09 06:58:22;;;;;;;25.13;13.52;;;-6.40;70.80;;;;;;5056431;28;20025;-89
2020/12/09 07:01:07;;;;;;;23.38;11.40;;;-6.40;70.00;;;;;;5052392;28;20045;-86
2020/12/09 07:03:38;;;;;;;23.58;12.52;;;-6.30;70.10;;;;;;5033782;28;20148;-91
2020/12/09 07:06:16;;;;;;;21.55;12.10;;;-6.30;70.10;;;;;;5050496;28;20029;-89
2020/12/09 07:08:45;;;;;;;25.95;14.23;;;-6.30;70.00;;;;;;5061136;28;20021;-94
2020/12/09 07:11:11;;;;;;;22.10;13.20;;;-6.20;70.10;;;;;;5075539;28;20009;-91
2020/12/09 07:13:38;;;;;;;37.70;15.65;;;-6.20;70.00;;;;;;5076274;28;20108;-93
2020/12/09 07:16:06;;;;;;;24.10;12.82;;;-6.10;70.00;;;;;;5046289;28;20040;-95
2020/12/09 07:18:37;;;;;;;19.20;12.98;;;-6.10;69.60;;;;;;5064951;28;20013;-92
2020/12/09 07:21:06;;;;;;;26.17;13.68;;;-6.10;69.50;;;;;;5079193;28;20037;-92
2020/12/09 07:23:33;;;;;;;22.88;13.18;;;-6.10;69.40;;;;;;5079595;28;20013;-92
2020/12/09 07:26:00;;;;;;;22.17;13.00;;;-6.10;69.30;;;;;;5070835;28;20039;-90
2020/12/09 07:28:32;;;;;;;27.90;17.92;;;-6.00;69.10;;;;;;5057899;28;20028;-90
2020/12/09 07:31:06;;;;;;;26.08;14.63;;;-6.00;69.20;;;;;;5060464;28;20112;-92
2020/12/09 07:33:32;;;;;;;22.58;14.23;;;-6.00;69.20;;;;;;5062680;28;20396;-91
2020/12/09 07:36:02;;;;;;;31.63;14.20;;;-5.90;69.10;;;;;;5048583;28;20081;-91
2020/12/09 07:38:28;;;;;;;21.95;14.70;;;-5.90;69.00;;;;;;5048846;28;20108;-90
2020/12/09 07:41:03;;;;;;;27.75;13.88;;;-5.90;69.00;;;;;;5049316;28;20128;-88
2020/12/09 07:43:29;;;;;;;28.33;12.82;;;-5.80;68.70;;;;;;5068418;28;20021;-93
2020/12/09 07:46:03;;;;;;;24.17;14.25;;;-5.80;68.20;;;;;;5078543;28;20017;-89
2020/12/09 07:48:30;;;;;;;25.65;14.75;;;-5.70;68.10;;;;;;5079116;28;20040;-88
2020/12/09 07:50:59;;;;;;;;;;;-5.70;67.90;;;;;;5075550;28;20028;-92
2020/12/09 07:53:25;;;;;;;24.38;13.10;;;-5.60;68.00;;;;;;5043948;28;19909;-90
2020/12/09 07:55:52;;;;;;;26.48;15.50;;;-5.60;67.90;;;;;;5064349;28;20490;-94
2020/12/09 07:58:29;;;;;;;27.67;16.55;;;-5.20;69.10;;;;;;5049514;28;20428;-95
2020/12/09 08:00:56;;;;;;;33.58;14.52;;;-4.50;67.80;;;;;;5068244;28;20021;-93
2020/12/09 08:03:24;;;;;;;26.67;14.63;;;-3.80;66.80;;;;;;5070511;28;20025;-95
2020/12/09 08:05:58;;;;;;;23.33;15.05;;;-3.10;64.50;;;;;;5076766;28;20039;-92
2020/12/09 08:08:26;;;;;;;25.60;13.05;;;-2.60;62.70;;;;;;5048496;28;20119;-95
2020/12/09 08:10:52;;;;;;;22.20;13.57;;;-2.10;61.10;;;;;;5073774;28;20044;-95
2020/12/09 08:13:21;;;;;;;27.13;14.95;;;-1.80;60.50;;;;;;5067617;28;20036;-93
2020/12/09 08:16:21;;;;;;;23.63;13.32;;;-1.20;58.80;;;;;;5055667;28;20071;-96
2020/12/09 08:18:48;;;;;;;24.20;15.80;;;-0.80;57.00;;;;;;5050548;28;20501;-94
2020/12/09 08:21:26;;;;;;;27.67;14.20;;;-0.50;56.10;;;;;;5044297;28;20033;-94
2020/12/09 08:23:59;;;;;;;21.75;14.38;;;-0.30;55.00;;;;;;5026521;28;20034;-95
2020/12/09 08:26:56;;;;;;;25.48;15.25;;;0.00;54.20;;;;;;5007140;28;20042;-96
2020/12/09 08:29:27;;;;;;;24.17;13.57;;;0.50;53.80;;;;;;5001143;28;20034;-95
2020/12/09 08:32:03;;;;;;;28.23;16.00;;;0.70;53.40;;;;;;5010531;28;20515;-95
2020/12/09 08:34:32;;;;;;;26.65;14.65;;;1.00;51.90;;;;;;4982087;28;20033;-90
2020/12/09 08:36:58;;;;;;;30.00;17.00;;;1.10;51.00;;;;;;5002014;28;20108;-94
2020/12/09 08:39:24;;;;;;;24.63;15.00;;;0.90;48.90;;;;;;4989792;28;20038;-90
2020/12/09 08:41:50;;;;;;;29.85;15.60;;;0.40;49.80;;;;;;4997176;28;20030;-90
2020/12/09 08:44:16;;;;;;;26.52;14.90;;;0.00;49.70;;;;;;5012669;28;20033;-88
2020/12/09 08:46:42;;;;;;;26.85;17.52;;;-0.30;51.00;;;;;;5006448;28;20082;-92
2020/12/09 08:49:08;;;;;;;25.40;15.95;;;-0.40;51.10;;;;;;4995499;28;20145;-93
2020/12/09 08:51:36;;;;;;;39.60;17.02;;;-0.30;51.70;;;;;;5034301;28;20049;-91
2020/12/09 08:54:07;;;;;;;27.02;15.73;;;-0.40;51.50;;;;;;5013941;28;20038;-89
2020/12/09 08:56:34;;;;;;;28.02;17.40;;;-0.40;51.30;;;;;;5005310;28;20068;-91
2020/12/09 08:59:03;;;;;;;30.35;15.10;;;-0.50;51.80;;;;;;5067047;28;20041;-88
2020/12/09 09:01:34;;;;;;;23.98;13.32;;;-0.20;52.10;;;;;;5070118;28;20025;-89
2020/12/09 09:04:06;;;;;;;25.88;14.85;;;0.20;51.80;;;;;;5061715;28;20032;-90
2020/12/09 09:06:32;;;;;;;28.63;15.13;;;0.50;51.00;;;;;;5073128;28;20064;-90
2020/12/09 09:08:58;;;;;;;26.50;15.70;;;0.60;50.40;;;;;;5076299;28;20081;-88
2020/12/09 09:11:25;;;;;;;41.13;15.90;;;0.70;50.30;;;;;;5075364;28;20409;-89
2020/12/09 09:13:54;;;;;;;28.05;17.38;;;0.80;49.30;;;;;;5070627;28;20492;-89
2020/12/09 09:16:24;;;;;;;34.78;17.13;;;0.60;49.00;;;;;;5076248;28;20021;-89
2020/12/09 09:18:50;;;;;;;26.25;14.10;;;0.40;49.20;;;;;;5066888;28;20039;-94
2020/12/09 09:21:17;;;;;;;26.45;15.68;;;0.40;49.70;;;;;;5066554;28;20004;-90
2020/12/09 09:23:44;;;;;;;27.23;17.15;;;0.50;49.50;;;;;;5068806;28;20051;-94
2020/12/09 09:26:11;;;;;;;27.20;15.70;;;0.50;49.40;;;;;;5042836;28;20037;-87
2020/12/09 09:28:40;;;;;;;31.65;13.93;;;0.20;49.30;;;;;;5060663;28;20021;-89
2020/12/09 09:31:08;;;;;;;32.88;15.93;;;-0.20;49.60;;;;;;5060083;28;20021;-93
2020/12/09 09:33:36;;;;;;;36.35;16.10;;;-0.60;50.20;;;;;;5046952;28;20079;-93
2020/12/09 09:36:03;;;;;;;23.10;13.95;;;-1.10;50.80;;;;;;5050616;28;20029;-92
2020/12/09 09:38:29;;;;;;;32.85;17.45;;;-1.40;51.60;;;;;;5036143;28;20380;-89
2020/12/09 09:40:55;;;;;;;27.35;15.25;;;-1.80;52.30;;;;;;5037510;28;20034;-90
2020/12/09 09:43:21;;;;;;;30.65;15.35;;;-2.10;53.00;;;;;;5052114;28;20021;-89
2020/12/09 09:45:48;;;;;;;27.05;14.73;;;-2.30;53.80;;;;;;5047915;28;20045;-89
2020/12/09 09:48:14;;;;;;;;;;;-2.40;54.40;;;;;;5044220;28;20030;-91
2020/12/09 09:50:40;;;;;;;23.25;12.98;;;-2.50;54.50;;;;;;5048930;28;19932;-89
2020/12/09 09:53:06;;;;;;;35.97;16.15;;;-2.70;54.80;;;;;;5037575;28;20387;-90
2020/12/09 09:55:33;;;;;;;27.80;13.07;;;-2.70;55.20;;;;;;5036490;28;20052;-90
2020/12/09 09:57:59;;;;;;;36.67;14.45;;;-2.80;55.50;;;;;;5034945;28;20394;-87
2020/12/09 10:00:24;;;;;;;28.13;14.38;;;-2.40;56.10;;;;;;5035279;28;20132;-91
2020/12/09 10:02:50;;;;;;;21.88;12.43;;;-1.60;56.20;;;;;;5038008;28;20034;-95
2020/12/09 10:05:17;;;;;;;28.70;14.88;;;-0.60;55.00;;;;;;5020724;28;20042;-94
2020/12/09 10:07:43;;;;;;;25.45;12.50;;;0.30;52.90;;;;;;5016700;28;20116;-90
2020/12/09 10:10:10;;;;;;;32.03;15.70;;;1.00;51.70;;;;;;5016032;28;20128;-90
2020/12/09 10:12:36;;;;;;;28.88;14.88;;;1.90;50.60;;;;;;5014648;28;20434;-91
2020/12/09 10:15:02;;;;;;;27.98;14.27;;;3.10;49.10;;;;;;5015572;28;20134;-89
2020/12/09 10:17:28;;;;;;;31.27;14.27;;;4.00;46.30;;;;;;5037308;28;20018;-90
2020/12/09 10:19:54;;;;;;;22.27;13.82;;;4.40;43.10;;;;;;5020021;28;20494;-86
2020/12/09 10:22:20;;;;;;;23.90;14.25;;;4.50;42.50;;;;;;5022799;28;20112;-91
2020/12/09 10:24:45;;;;;;;22.33;14.85;;;4.20;42.40;;;;;;5027233;28;20028;-92
2020/12/09 10:27:12;;;;;;;27.50;15.32;;;3.50;42.60;;;;;;5034655;28;20726;-90
2020/12/09 10:29:38;;;;;;;27.60;14.57;;;2.70;43.20;;;;;;5023653;28;20056;-91
2020/12/09 10:32:04;;;;;;;25.42;13.40;;;2.00;43.80;;;;;;5033873;28;20410;-89
2020/12/09 10:34:30;;;;;;;29.20;14.70;;;1.10;44.30;;;;;;5029006;28;20027;-91
2020/12/09 10:36:56;;;;;;;30.98;14.13;;;0.30;46.00;;;;;;5063234;28;20052;-88
2020/12/09 10:39:23;;;;;;;22.95;12.90;;;-0.30;47.60;;;;;;5057006;28;20040;-88
2020/12/09 10:41:50;;;;;;;34.38;17.48;;;-0.80;48.40;;;;;;5048824;28;20055;-89
2020/12/09 10:44:20;;;;;;;27.02;14.80;;;-1.20;49.90;;;;;;5057738;28;20033;-86
2020/12/09 10:46:47;;;;;;;23.42;12.63;;;-1.50;50.50;;;;;;5052855;28;20040;-90
2020/12/09 10:49:15;;;;;;;;;;;-1.60;51.40;;;;;;5058196;28;20037;-86
2020/12/09 10:51:51;;;;;;;30.60;16.65;;;-1.80;51.80;;;;;;5053530;28;20025;-89
2020/12/09 10:54:18;;;;;;;34.10;14.38;;;-2.00;52.80;;;;;;5056268;28;20037;-91
2020/12/09 10:56:45;;;;;;;87.50;17.85;;;-2.10;53.00;;;;;;5059002;28;20055;-89
2020/12/09 10:59:11;;;;;;;28.48;14.55;;;-2.10;53.20;;;;;;5044809;28;20044;-93
2020/12/09 11:01:37;;;;;;;28.25;14.55;;;-2.10;53.30;;;;;;5038173;28;20063;-92
2020/12/09 11:04:05;;;;;;;26.67;15.15;;;-2.10;53.50;;;;;;5068760;28;20029;-90
2020/12/09 11:06:34;;;;;;;25.88;14.88;;;-2.20;53.60;;;;;;5057643;28;20037;-91
2020/12/09 11:09:11;;;;;;;30.77;15.43;;;-2.20;53.60;;;;;;5060188;28;20017;-88
2020/12/09 11:11:46;;;;;;;31.75;15.07;;;-2.20;53.80;;;;;;5051999;28;20042;-94
2020/12/09 11:14:16;;;;;;;27.60;15.25;;;-2.20;54.00;;;;;;5052849;28;20052;-92
2020/12/09 11:16:42;;;;;;;22.98;14.63;;;-2.20;54.20;;;;;;5049897;28;20032;-90
2020/12/09 11:19:10;;;;;;;25.15;13.63;;;-2.20;54.10;;;;;;5072945;28;20076;-91
2020/12/09 11:21:39;;;;;;;26.55;14.32;;;-2.20;54.00;;;;;;5058989;28;20041;-90
2020/12/09 11:24:05;;;;;;;27.63;14.27;;;-2.10;54.20;;;;;;5060985;28;20017;-89
2020/12/09 11:26:31;;;;;;;34.05;18.15;;;-2.10;54.10;;;;;;5063463;28;20025;-87
2020/12/09 11:28:57;;;;;;;25.60;15.07;;;-2.10;54.30;;;;;;5054557;28;20549;-89
2020/12/09 11:31:25;;;;;;;24.25;15.02;;;-2.20;54.40;;;;;;5058606;28;20041;-90
2020/12/09 11:33:51;;;;;;;30.90;15.55;;;-2.20;54.50;;;;;;5061367;28;20061;-87
2020/12/09 11:36:25;;;;;;;38.22;17.60;;;-2.20;54.70;;;;;;5060362;28;20029;-89
2020/12/09 11:38:52;;;;;;;28.33;17.98;;;-2.20;54.90;;;;;;5039380;28;20025;-89
2020/12/09 11:41:25;;;;;;;40.88;17.98;;;-2.20;55.20;;;;;;5056578;28;20096;-85
2020/12/09 11:43:54;;;;;;;39.13;15.60;;;-2.20;55.20;;;;;;5059082;28;20036;-87
2020/12/09 11:46:22;;;;;;;33.38;17.25;;;-2.20;55.20;;;;;;5061154;28;20140;-93
2020/12/09 11:48:48;;;;;;;38.72;19.20;;;-2.20;55.30;;;;;;5040560;28;20072;-88
2020/12/09 11:51:14;;;;;;;41.95;19.88;;;-2.20;55.50;;;;;;5054904;28;20061;-86
2020/12/09 11:53:43;;;;;;;25.80;15.80;;;-2.20;55.80;;;;;;5035492;28;20037;-90
2020/12/09 11:56:09;;;;;;;23.45;13.05;;;-2.20;55.80;;;;;;5042379;28;20087;-86
2020/12/09 11:58:37;;;;;;;32.13;18.02;;;-2.20;55.70;;;;;;5048309;28;20049;-95
2020/12/09 12:01:06;;;;;;;28.77;15.35;;;-2.20;55.60;;;;;;5044327;28;20083;-94
2020/12/09 12:03:33;;;;;;;29.70;17.58;;;-2.30;55.90;;;;;;5029900;28;20065;-91
2020/12/09 12:05:59;;;;;;;31.85;16.33;;;-2.30;56.10;;;;;;5054974;28;20040;-91
2020/12/09 12:08:25;;;;;;;28.92;17.30;;;-2.30;56.30;;;;;;5047643;28;20112;-93
2020/12/09 12:10:51;;;;;;;32.35;14.95;;;-2.30;56.30;;;;;;5045859;28;20561;-90
2020/12/09 12:13:16;;;;;;;30.70;15.77;;;-2.30;56.70;;;;;;5064028;28;20072;-94
2020/12/09 12:15:43;;;;;;;28.75;15.80;;;-2.40;56.80;;;;;;5045579;28;20029;-92
2020/12/09 12:18:09;;;;;;;31.90;16.35;;;-2.30;57.00;;;;;;5045707;28;20060;-92
2020/12/09 12:20:35;;;;;;;28.02;15.25;;;-2.40;56.80;;;;;;5066971;28;20433;-93
2020/12/09 12:23:01;;;;;;;27.83;14.93;;;-2.40;56.70;;;;;;5070057;28;20047;-90
2020/12/09 12:25:27;;;;;;;24.23;14.55;;;-2.40;56.70;;;;;;5059712;28;20029;-93
2020/12/09 12:27:53;;;;;;;20.80;14.85;;;-2.40;56.60;;;;;;5049725;28;20029;-92
2020/12/09 12:30:21;;;;;;;27.33;13.30;;;-2.40;56.70;;;;;;5049346;28;20025;-91
2020/12/09 12:32:47;;;;;;;30.67;14.27;;;-2.40;56.80;;;;;;5048669;28;20085;-90
2020/12/09 12:35:13;;;;;;;30.10;15.40;;;-2.50;56.90;;;;;;5073865;28;20036;-90